Time,TemperatureF,DewpointF,PressureIn,WindDirection,WindDirectionDegrees,WindSpeedMPH,WindSpeedGustMPH,Humidity,HourlyPrecipIn,Conditions,Clouds,dailyrainin,SolarRadiationWatts/m^2,SoftwareType,DateUTC
2013-02-23 00:01:00,44.0,17.0,30.01,WNW,284,13.0,24.0,32,-99.99,,,-99.99,0.000000,,2013-02-23 07:01:00,
2013-02-23 00:11:00,44.0,17.0,30.02,WNW,296,11.0,21.0,33,-99.99,,,-99.99,0.000000,,2013-02-23 07:11:00,
2013-02-23 00:21:00,44.0,17.0,30.02,WNW,296,11.0,21.0,33,-99.99,,,-99.99,0.000000,,2013-02-23 07:21:00,
2013-02-23 00:32:00,43.0,18.0,30.04,WNW,303,10.0,16.0,35,-99.99,,,-99.99,0.000000,,2013-02-23 07:32:00,
2013-02-23 00:41:00,42.0,18.0,30.04,WNW,300,10.0,19.0,37,-99.99,,,-99.99,0.000000,,2013-02-23 07:41:00,
2013-02-23 00:52:00,42.0,18.0,30.04,WNW,300,10.0,19.0,37,-99.99,,,-99.99,0.000000,,2013-02-23 07:52:00,
2013-02-23 01:01:00,41.0,18.0,30.05,NW,309,8.0,13.0,38,-99.99,,,-99.99,0.000000,,2013-02-23 08:01:00,
2013-02-23 01:11:00,41.0,18.0,30.05,NW,309,8.0,13.0,38,-99.99,,,-99.99,0.000000,,2013-02-23 08:11:00,
2013-02-23 01:21:00,41.0,18.0,30.05,NW,309,8.0,13.0,38,-99.99,,,-99.99,0.000000,,2013-02-23 08:21:00,
2013-02-23 01:31:00,41.0,14.0,30.06,West,281,10.0,16.0,32,-99.99,,,-99.99,0.000000,,2013-02-23 08:31:00,
2013-02-23 01:42:00,41.0,14.0,30.06,West,281,10.0,16.0,32,-99.99,,,-99.99,0.000000,,2013-02-23 08:42:00,
2013-02-23 01:52:00,41.0,14.0,30.06,West,281,10.0,16.0,32,-99.99,,,-99.99,0.000000,,2013-02-23 08:52:00,
2013-02-23 02:01:00,41.0,12.0,30.06,WNW,287,10.0,18.0,30,-99.99,,,-99.99,0.000000,,2013-02-23 09:01:00,
2013-02-23 02:11:00,40.0,11.0,30.06,West,280,9.0,15.0,29,-99.99,,,-99.99,0.000000,,2013-02-23 09:11:00,
2013-02-23 02:21:00,40.0,11.0,30.06,West,280,9.0,15.0,29,-99.99,,,-99.99,0.000000,,2013-02-23 09:21:00,
2013-02-23 02:32:00,39.0,9.0,30.06,West,273,8.0,12.0,28,-99.99,,,-99.99,0.000000,,2013-02-23 09:32:00,
2013-02-23 02:42:00,39.0,9.0,30.06,West,274,6.0,11.0,28,-99.99,,,-99.99,0.000000,,2013-02-23 09:42:00,
2013-02-23 02:52:00,39.0,9.0,30.06,West,274,6.0,11.0,28,-99.99,,,-99.99,0.000000,,2013-02-23 09:52:00,
2013-02-23 03:01:00,38.0,9.0,30.06,WNW,297,5.0,11.0,28,-99.99,,,-99.99,0.000000,,2013-02-23 10:01:00,
2013-02-23 03:11:00,38.0,9.0,30.06,West,267,6.0,11.0,28,-99.99,,,-99.99,0.000000,,2013-02-23 10:11:00,
2013-02-23 03:21:00,38.0,9.0,30.06,West,267,6.0,11.0,28,-99.99,,,-99.99,0.000000,,2013-02-23 10:21:00,
2013-02-23 03:31:00,38.0,9.0,30.05,West,265,7.0,11.0,29,-99.99,,,-99.99,0.000000,,2013-02-23 10:31:00,
2013-02-23 03:42:00,38.0,9.0,30.05,West,265,7.0,11.0,29,-99.99,,,-99.99,0.000000,,2013-02-23 10:42:00,
2013-02-23 03:52:00,38.0,9.0,30.05,West,265,7.0,11.0,29,-99.99,,,-99.99,0.000000,,2013-02-23 10:52:00,
2013-02-23 04:02:00,38.0,9.0,30.05,West,274,7.0,9.0,29,-99.99,,,-99.99,0.000000,,2013-02-23 11:02:00,
2013-02-23 04:11:00,38.0,9.0,30.04,West,269,7.0,11.0,29,-99.99,,,-99.99,0.000000,,2013-02-23 11:11:00,
2013-02-23 04:21:00,38.0,9.0,30.04,West,269,7.0,11.0,29,-99.99,,,-99.99,0.000000,,2013-02-23 11:21:00,
2013-02-23 04:32:00,37.0,9.0,30.04,West,278,7.0,12.0,30,-99.99,,,-99.99,0.000000,,2013-02-23 11:32:00,
2013-02-23 04:42:00,37.0,9.0,30.04,WNW,282,8.0,12.0,30,-99.99,,,-99.99,0.000000,,2013-02-23 11:42:00,
2013-02-23 04:52:00,37.0,9.0,30.04,WNW,282,8.0,12.0,30,-99.99,,,-99.99,0.000000,,2013-02-23 11:52:00,
2013-02-23 05:02:00,37.0,9.0,30.04,WNW,282,8.0,12.0,30,-99.99,,,-99.99,0.000000,,2013-02-23 12:02:00,
2013-02-23 05:11:00,39.0,9.0,30.03,West,276,8.0,11.0,28,-99.99,,,-99.99,0.000000,,2013-02-23 12:11:00,
2013-02-23 05:21:00,39.0,9.0,30.03,West,276,8.0,11.0,28,-99.99,,,-99.99,0.000000,,2013-02-23 12:21:00,
2013-02-23 05:32:00,39.0,9.0,30.03,West,276,8.0,11.0,28,-99.99,,,-99.99,0.000000,,2013-02-23 12:32:00,
2013-02-23 05:42:00,38.0,8.0,30.02,West,277,10.0,14.0,27,-99.99,,,-99.99,0.000000,,2013-02-23 12:42:00,
2013-02-23 05:52:00,38.0,8.0,30.02,West,277,10.0,14.0,27,-99.99,,,-99.99,0.000000,,2013-02-23 12:52:00,
2013-02-23 06:01:00,36.0,8.0,30.03,SE,140,4.0,9.0,31,-99.99,,,-99.99,0.000000,,2013-02-23 13:01:00,
2013-02-23 06:11:00,36.0,8.0,30.03,SE,140,4.0,9.0,31,-99.99,,,-99.99,0.000000,,2013-02-23 13:11:00,
2013-02-23 06:22:00,36.0,8.0,30.03,SE,140,4.0,9.0,31,-99.99,,,-99.99,0.000000,,2013-02-23 13:22:00,
2013-02-23 06:32:00,33.0,9.0,30.04,SE,133,2.0,6.0,35,-99.99,,,-99.99,0.000000,,2013-02-23 13:32:00,
2013-02-23 06:42:00,32.0,9.0,30.04,West,270,2.0,4.0,37,-99.99,,,-99.99,0.000000,,2013-02-23 13:42:00,
2013-02-23 06:52:00,32.0,9.0,30.04,West,270,2.0,4.0,37,-99.99,,,-99.99,0.000000,,2013-02-23 13:52:00,
2013-02-23 07:02:00,32.0,9.0,30.04,West,270,2.0,4.0,37,-99.99,,,-99.99,0.000000,,2013-02-23 14:02:00,
2013-02-23 07:11:00,32.0,9.0,30.04,West,270,2.0,4.0,37,-99.99,,,-99.99,0.000000,,2013-02-23 14:11:00,
2013-02-23 07:32:00,30.0,11.0,30.04,SW,233,1.0,3.0,44,-99.99,,,-99.99,4.180000,,2013-02-23 14:32:00,
2013-02-23 07:42:00,29.0,12.0,30.04,NW,305,3.0,6.0,48,-99.99,,,-99.99,27.200001,,2013-02-23 14:42:00,
2013-02-23 07:52:00,29.0,12.0,30.04,NW,305,3.0,6.0,48,-99.99,,,-99.99,27.200001,,2013-02-23 14:52:00,
2013-02-23 08:02:00,32.0,15.0,30.05,WSW,253,4.0,5.0,48,-99.99,,,-99.99,140.160004,,2013-02-23 15:02:00,
2013-02-23 08:11:00,36.0,13.0,30.06,WSW,247,2.0,3.0,37,-99.99,,,-99.99,190.369995,,2013-02-23 15:11:00,
2013-02-23 08:22:00,36.0,13.0,30.06,WSW,247,2.0,3.0,37,-99.99,,,-99.99,190.369995,,2013-02-23 15:22:00,
2013-02-23 08:32:00,39.0,10.0,30.05,WNW,282,2.0,4.0,30,-99.99,,,-99.99,244.070007,,2013-02-23 15:32:00,
2013-02-23 08:42:00,40.0,10.0,30.06,NE,53,2.0,4.0,28,-99.99,,,-99.99,305.429993,,2013-02-23 15:42:00,
2013-02-23 08:52:00,40.0,10.0,30.06,NE,53,2.0,4.0,28,-99.99,,,-99.99,305.429993,,2013-02-23 15:52:00,
2013-02-23 09:01:00,39.0,10.0,30.06,NE,41,4.0,7.0,29,-99.99,,,-99.99,360.519989,,2013-02-23 16:01:00,
2013-02-23 09:11:00,39.0,11.0,30.06,NE,47,5.0,9.0,30,-99.99,,,-99.99,414.220001,,2013-02-23 16:11:00,
2013-02-23 09:21:00,39.0,11.0,30.06,NE,47,5.0,9.0,30,-99.99,,,-99.99,414.220001,,2013-02-23 16:21:00,
2013-02-23 09:31:00,40.0,11.0,30.06,NE,38,3.0,7.0,29,-99.99,,,-99.99,466.519989,,2013-02-23 16:31:00,
2013-02-23 09:42:00,41.0,11.0,30.06,ENE,59,3.0,7.0,28,-99.99,,,-99.99,515.330017,,2013-02-23 16:42:00,
2013-02-23 09:52:00,41.0,11.0,30.06,ENE,59,3.0,7.0,28,-99.99,,,-99.99,515.330017,,2013-02-23 16:52:00,
2013-02-23 10:01:00,42.0,11.0,30.06,ENE,66,3.0,6.0,27,-99.99,,,-99.99,563.450012,,2013-02-23 17:01:00,
2013-02-23 10:11:00,42.0,11.0,30.05,ENE,70,4.0,6.0,26,-99.99,,,-99.99,608.070007,,2013-02-23 17:11:00,
2013-02-23 10:21:00,42.0,11.0,30.05,ENE,70,4.0,6.0,26,-99.99,,,-99.99,608.070007,,2013-02-23 17:21:00,
2013-02-23 10:31:00,42.0,11.0,30.05,ENE,70,4.0,6.0,26,-99.99,,,-99.99,608.070007,,2013-02-23 17:31:00,
2013-02-23 10:42:00,44.0,10.0,30.05,East,86,5.0,7.0,24,-99.99,,,-99.99,685.479980,,2013-02-23 17:42:00,
2013-02-23 10:52:00,44.0,10.0,30.05,East,86,5.0,7.0,24,-99.99,,,-99.99,685.479980,,2013-02-23 17:52:00,
2013-02-23 11:01:00,46.0,10.0,30.04,East,88,4.0,9.0,22,-99.99,,,-99.99,714.770020,,2013-02-23 18:01:00,
2013-02-23 11:12:00,47.0,10.0,30.04,East,100,5.0,11.0,22,-99.99,,,-99.99,744.049988,,2013-02-23 18:12:00,
2013-02-23 11:22:00,47.0,10.0,30.04,East,100,5.0,11.0,22,-99.99,,,-99.99,744.049988,,2013-02-23 18:22:00,
2013-02-23 11:32:00,47.0,10.0,30.02,East,82,4.0,9.0,21,-99.99,,,-99.99,770.549988,,2013-02-23 18:32:00,
2013-02-23 11:42:00,48.0,10.0,30.02,ENE,68,4.0,9.0,21,-99.99,,,-99.99,793.570007,,2013-02-23 18:42:00,
2013-02-23 11:52:00,48.0,10.0,30.02,ENE,68,4.0,9.0,21,-99.99,,,-99.99,793.570007,,2013-02-23 18:52:00,
2013-02-23 12:01:00,49.0,10.0,30.01,SSE,153,6.0,13.0,20,-99.99,,,-99.99,809.599976,,2013-02-23 19:01:00,
2013-02-23 12:11:00,49.0,10.0,30.01,SSE,153,6.0,13.0,20,-99.99,,,-99.99,809.599976,,2013-02-23 19:11:00,
2013-02-23 12:21:00,49.0,10.0,30.01,SSE,153,6.0,13.0,20,-99.99,,,-99.99,809.599976,,2013-02-23 19:21:00,
2013-02-23 12:32:00,51.0,12.0,29.99,SE,142,10.0,17.0,20,-99.99,,,-99.99,827.729980,,2013-02-23 19:32:00,
2013-02-23 12:41:00,50.0,12.0,29.98,SE,138,12.0,19.0,21,-99.99,,,-99.99,833.309998,,2013-02-23 19:41:00,
2013-02-23 12:52:00,50.0,12.0,29.98,SE,138,12.0,19.0,21,-99.99,,,-99.99,833.309998,,2013-02-23 19:52:00,
2013-02-23 13:01:00,51.0,12.0,29.97,SE,141,12.0,17.0,20,-99.99,,,-99.99,833.309998,,2013-02-23 20:01:00,
2013-02-23 13:11:00,52.0,12.0,29.95,SSE,153,10.0,16.0,19,-99.99,,,-99.99,829.130005,,2013-02-23 20:11:00,
2013-02-23 13:21:00,52.0,12.0,29.95,SSE,153,10.0,16.0,19,-99.99,,,-99.99,829.130005,,2013-02-23 20:21:00,
2013-02-23 13:32:00,53.0,11.0,29.94,SSE,159,6.0,13.0,18,-99.99,,,-99.99,820.760010,,2013-02-23 20:32:00,
2013-02-23 13:41:00,53.0,10.0,29.93,NNE,30,4.0,12.0,17,-99.99,,,-99.99,806.809998,,2013-02-23 20:41:00,
2013-02-23 13:53:00,53.0,10.0,29.93,NNE,30,4.0,12.0,17,-99.99,,,-99.99,806.809998,,2013-02-23 20:53:00,
2013-02-23 14:01:00,53.0,10.0,29.93,NNE,30,4.0,12.0,17,-99.99,,,-99.99,806.809998,,2013-02-23 21:01:00,
2013-02-23 14:11:00,55.0,8.0,29.90,East,95,5.0,10.0,15,-99.99,,,-99.99,767.760010,,2013-02-23 21:11:00,
2013-02-23 14:22:00,55.0,8.0,29.90,East,95,5.0,10.0,15,-99.99,,,-99.99,767.760010,,2013-02-23 21:22:00,
2013-02-23 14:32:00,55.0,7.0,29.89,ENE,74,5.0,8.0,14,-99.99,,,-99.99,741.960022,,2013-02-23 21:32:00,
2013-02-23 14:41:00,57.0,8.0,29.88,East,85,3.0,7.0,13,-99.99,,,-99.99,713.369995,,2013-02-23 21:41:00,
2013-02-23 14:52:00,57.0,8.0,29.88,East,85,3.0,7.0,13,-99.99,,,-99.99,713.369995,,2013-02-23 21:52:00,
2013-02-23 15:01:00,56.0,7.0,29.87,East,100,4.0,10.0,13,-99.99,,,-99.99,684.780029,,2013-02-23 22:01:00,
2013-02-23 15:11:00,57.0,8.0,29.86,East,100,3.0,7.0,13,-99.99,,,-99.99,646.429993,,2013-02-23 22:11:00,
2013-02-23 15:22:00,57.0,8.0,29.86,East,100,3.0,7.0,13,-99.99,,,-99.99,646.429993,,2013-02-23 22:22:00,
2013-02-23 15:31:00,58.0,8.0,29.85,East,88,9.0,23.0,13,-99.99,,,-99.99,605.289978,,2013-02-23 22:31:00,
2013-02-23 15:42:00,58.0,8.0,29.84,ENE,72,8.0,19.0,13,-99.99,,,-99.99,562.750000,,2013-02-23 22:42:00,
2013-02-23 15:52:00,58.0,8.0,29.84,ENE,72,8.0,19.0,13,-99.99,,,-99.99,562.750000,,2013-02-23 22:52:00,
2013-02-23 16:01:00,58.0,8.0,29.83,ESE,104,8.0,15.0,13,-99.99,,,-99.99,517.419983,,2013-02-23 23:01:00,
2013-02-23 16:11:00,59.0,8.0,29.83,East,84,6.0,12.0,13,-99.99,,,-99.99,468.609985,,2013-02-23 23:11:00,
2013-02-23 16:21:00,59.0,8.0,29.83,East,84,6.0,12.0,13,-99.99,,,-99.99,468.609985,,2013-02-23 23:21:00,
2013-02-23 16:31:00,59.0,9.0,29.82,ESE,114,6.0,14.0,13,-99.99,,,-99.99,418.399994,,2013-02-23 23:31:00,
2013-02-23 16:42:00,59.0,10.0,29.82,NE,49,9.0,25.0,13,-99.99,,,-99.99,362.609985,,2013-02-23 23:42:00,
2013-02-23 16:52:00,59.0,10.0,29.82,NE,49,9.0,25.0,13,-99.99,,,-99.99,362.609985,,2013-02-23 23:52:00,
2013-02-23 17:01:00,59.0,11.0,29.81,WSW,238,6.0,14.0,14,-99.99,,,-99.99,308.920013,,2013-02-24 00:01:00,
2013-02-23 17:11:00,59.0,11.0,29.80,East,84,10.0,29.0,14,-99.99,,,-99.99,253.830002,,2013-02-24 00:11:00,
2013-02-23 17:22:00,59.0,11.0,29.80,East,84,10.0,29.0,14,-99.99,,,-99.99,253.830002,,2013-02-24 00:22:00,
2013-02-23 17:32:00,59.0,12.0,29.80,SW,217,12.0,23.0,15,-99.99,,,-99.99,196.649994,,2013-02-24 00:32:00,
2013-02-23 17:42:00,58.0,13.0,29.79,SW,219,13.0,26.0,16,-99.99,,,-99.99,112.269997,,2013-02-24 00:42:00,
2013-02-23 17:52:00,58.0,13.0,29.79,SW,219,13.0,26.0,16,-99.99,,,-99.99,112.269997,,2013-02-24 00:52:00,
2013-02-23 18:01:00,57.0,14.0,29.80,SSE,159,8.0,19.0,17,-99.99,,,-99.99,16.740000,,2013-02-24 01:01:00,
2013-02-23 18:11:00,57.0,13.0,29.80,WNW,301,5.0,11.0,17,-99.99,,,-99.99,12.550000,,2013-02-24 01:11:00,
2013-02-23 18:22:00,57.0,13.0,29.80,WNW,301,5.0,11.0,17,-99.99,,,-99.99,12.550000,,2013-02-24 01:22:00,
2013-02-23 18:31:00,56.0,14.0,29.80,NNW,345,3.0,9.0,18,-99.99,,,-99.99,6.970000,,2013-02-24 01:31:00,
2013-02-23 18:42:00,56.0,14.0,29.80,West,268,5.0,18.0,19,-99.99,,,-99.99,2.090000,,2013-02-24 01:42:00,
2013-02-23 18:52:00,56.0,14.0,29.80,West,268,5.0,18.0,19,-99.99,,,-99.99,2.090000,,2013-02-24 01:52:00,
2013-02-23 19:01:00,56.0,14.0,29.80,SSW,203,5.0,14.0,18,-99.99,,,-99.99,0.000000,,2013-02-24 02:01:00,
2013-02-23 19:11:00,56.0,14.0,29.79,West,268,9.0,24.0,18,-99.99,,,-99.99,0.000000,,2013-02-24 02:11:00,
2013-02-23 19:21:00,56.0,14.0,29.79,West,268,9.0,24.0,18,-99.99,,,-99.99,0.000000,,2013-02-24 02:21:00,
2013-02-23 19:32:00,57.0,14.0,29.79,WSW,251,10.0,21.0,17,-99.99,,,-99.99,0.000000,,2013-02-24 02:32:00,
2013-02-23 19:42:00,57.0,14.0,29.79,West,260,12.0,30.0,18,-99.99,,,-99.99,0.000000,,2013-02-24 02:42:00,
2013-02-23 19:52:00,57.0,14.0,29.79,West,260,12.0,30.0,18,-99.99,,,-99.99,0.000000,,2013-02-24 02:52:00,
2013-02-23 20:01:00,57.0,15.0,29.78,West,268,11.0,25.0,18,-99.99,,,-99.99,0.000000,,2013-02-24 03:01:00,
2013-02-23 20:11:00,56.0,16.0,29.79,WNW,289,5.0,13.0,20,-99.99,,,-99.99,0.000000,,2013-02-24 03:11:00,
2013-02-23 20:21:00,56.0,16.0,29.79,WNW,289,5.0,13.0,20,-99.99,,,-99.99,0.000000,,2013-02-24 03:21:00,
2013-02-23 20:32:00,56.0,16.0,29.79,WNW,283,5.0,16.0,21,-99.99,,,-99.99,0.000000,,2013-02-24 03:32:00,
2013-02-23 20:42:00,52.0,17.0,29.79,WSW,238,4.0,10.0,24,-99.99,,,-99.99,0.000000,,2013-02-24 03:42:00,
2013-02-23 20:52:00,52.0,17.0,29.79,WSW,238,4.0,10.0,24,-99.99,,,-99.99,0.000000,,2013-02-24 03:52:00,
2013-02-23 21:01:00,50.0,17.0,29.79,ESE,107,7.0,13.0,26,-99.99,,,-99.99,0.000000,,2013-02-24 04:01:00,
2013-02-23 21:11:00,49.0,17.0,29.80,NE,53,3.0,6.0,27,-99.99,,,-99.99,0.000000,,2013-02-24 04:11:00,
2013-02-23 21:21:00,49.0,17.0,29.80,NE,53,3.0,6.0,27,-99.99,,,-99.99,0.000000,,2013-02-24 04:21:00,
2013-02-23 21:31:00,50.0,17.0,29.79,NE,44,6.0,14.0,27,-99.99,,,-99.99,0.000000,,2013-02-24 04:31:00,
2013-02-23 21:41:00,53.0,16.0,29.78,West,270,10.0,28.0,23,-99.99,,,-99.99,0.000000,,2013-02-24 04:41:00,
2013-02-23 21:52:00,53.0,16.0,29.78,West,270,10.0,28.0,23,-99.99,,,-99.99,0.000000,,2013-02-24 04:52:00,
2013-02-23 22:01:00,56.0,15.0,29.77,WSW,244,14.0,28.0,19,-99.99,,,-99.99,0.000000,,2013-02-24 05:01:00,
2013-02-23 22:11:00,58.0,16.0,29.76,WSW,247,18.0,45.0,18,-99.99,,,-99.99,0.000000,,2013-02-24 05:11:00,
2013-02-23 22:22:00,58.0,16.0,29.76,WSW,247,18.0,45.0,18,-99.99,,,-99.99,0.000000,,2013-02-24 05:22:00,
2013-02-23 22:32:00,58.0,15.0,29.75,WSW,255,17.0,46.0,18,-99.99,,,-99.99,0.000000,,2013-02-24 05:32:00,
2013-02-23 22:42:00,59.0,15.0,29.74,WSW,250,24.0,53.0,17,-99.99,,,-99.99,0.000000,,2013-02-24 05:42:00,
2013-02-23 22:52:00,59.0,15.0,29.74,WSW,250,24.0,53.0,17,-99.99,,,-99.99,0.000000,,2013-02-24 05:52:00,
2013-02-23 23:01:00,59.0,14.0,29.74,WSW,256,19.0,43.0,17,-99.99,,,-99.99,0.000000,,2013-02-24 06:01:00,
2013-02-23 23:11:00,59.0,15.0,29.73,WSW,249,17.0,45.0,17,-99.99,,,-99.99,0.000000,,2013-02-24 06:11:00,
2013-02-23 23:21:00,59.0,15.0,29.73,WSW,249,17.0,45.0,17,-99.99,,,-99.99,0.000000,,2013-02-24 06:21:00,
2013-02-23 23:31:00,58.0,15.0,29.73,WSW,243,17.0,34.0,17,-99.99,,,-99.99,0.000000,,2013-02-24 06:31:00,
2013-02-23 23:42:00,58.0,14.0,29.72,SW,236,22.0,41.0,17,-99.99,,,-99.99,0.000000,,2013-02-24 06:42:00,
2013-02-23 23:52:00,58.0,14.0,29.72,SW,236,22.0,41.0,17,-99.99,,,-99.99,0.000000,,2013-02-24 06:52:00,